createdAt,value
2019-02-27T00:02:14.616Z,56.80
2019-02-27T00:06:19.755Z,56.30
2019-02-27T00:10:22.752Z,56.40
2019-02-27T00:14:25.768Z,56.80
2019-02-27T00:18:28.872Z,56.80
2019-02-27T00:22:31.883Z,56.60
2019-02-27T00:26:34.887Z,56.60
2019-02-27T00:30:38.619Z,57.30
2019-02-27T00:34:41.705Z,57.70
2019-02-27T00:38:44.729Z,58.00
2019-02-27T00:42:47.719Z,58.00
2019-02-27T00:46:50.721Z,58.20
2019-02-27T00:50:53.742Z,58.50
2019-02-27T00:54:56.761Z,58.70
2019-02-27T00:59:00.162Z,58.50
2019-02-27T01:03:03.873Z,59.10
2019-02-27T01:07:08.301Z,59.90
2019-02-27T01:11:11.300Z,58.80
2019-02-27T01:15:14.435Z,58.60
2019-02-27T01:19:17.417Z,58.40
2019-02-27T01:23:20.421Z,58.70
2019-02-27T01:27:23.425Z,59.40
2019-02-27T01:31:26.436Z,60.30
2019-02-27T01:35:29.444Z,59.80
2019-02-27T01:39:32.444Z,60.00
2019-02-27T01:43:36.893Z,59.90
2019-02-27T01:47:40.386Z,59.60
2019-02-27T01:51:43.398Z,60.10
2019-02-27T01:55:46.395Z,60.30
2019-02-27T01:59:50.460Z,60.00
2019-02-27T02:03:54.131Z,59.70
2019-02-27T02:07:58.895Z,60.30
2019-02-27T02:12:11.237Z,60.70
2019-02-27T02:16:34.151Z,61.50
2019-02-27T02:20:50.820Z,61.20
2019-02-27T02:24:57.636Z,61.70
2019-02-27T02:29:13.524Z,62.10
2019-02-27T02:33:37.092Z,63.00
2019-02-27T02:37:43.900Z,64.10
2019-02-27T02:42:16.325Z,66.40
2019-02-27T02:46:26.303Z,66.60
2019-02-27T02:50:54.018Z,65.50
2019-02-27T02:55:03.142Z,64.60
2019-02-27T02:59:33.056Z,63.70
2019-02-27T03:03:39.869Z,64.30
2019-02-27T03:08:20.246Z,64.90
2019-02-27T03:12:46.739Z,64.60
2019-02-27T03:16:53.549Z,65.20
2019-02-27T03:21:09.436Z,67.00
2019-02-27T03:25:19.286Z,67.90
2019-02-27T03:29:31.697Z,68.30
2019-02-27T03:33:38.513Z,68.40
2019-02-27T03:38:00.764Z,68.10
2019-02-27T03:42:16.445Z,69.70
2019-02-27T03:46:29.056Z,71.20
2019-02-27T03:50:38.647Z,71.50
2019-02-27T03:54:48.761Z,70.80
2019-02-27T03:59:05.676Z,70.30
2019-02-27T04:03:17.058Z,70.30
2019-02-27T04:07:25.203Z,70.50
2019-02-27T04:11:28.406Z,70.90
2019-02-27T04:15:32.449Z,71.60
2019-02-27T04:19:38.888Z,72.00
2019-02-27T04:23:40.373Z,71.60
2019-02-27T04:27:43.362Z,70.40
2019-02-27T04:31:46.368Z,69.00
2019-02-27T04:35:49.448Z,68.30
2019-02-27T04:39:52.480Z,68.90
2019-02-27T04:43:55.487Z,69.10
2019-02-27T04:47:58.540Z,68.00
2019-02-27T04:52:01.611Z,67.60
2019-02-27T04:56:04.958Z,68.50
2019-02-27T05:00:09.376Z,69.60
2019-02-27T05:04:12.384Z,69.30
2019-02-27T05:08:15.408Z,68.00
2019-02-27T05:12:18.415Z,66.80
2019-02-27T05:16:22.840Z,66.50
2019-02-27T05:20:25.855Z,66.20
2019-02-27T05:24:28.859Z,66.10
2019-02-27T05:28:32.146Z,65.50
2019-02-27T05:32:37.069Z,65.50
2019-02-27T05:36:40.226Z,66.40
2019-02-27T05:40:43.235Z,66.90
2019-02-27T05:44:46.235Z,66.20
2019-02-27T05:48:50.932Z,64.50
2019-02-27T05:52:54.231Z,63.90
2019-02-27T05:56:57.255Z,63.90
2019-02-27T06:01:02.074Z,64.70
2019-02-27T06:05:05.570Z,64.50
2019-02-27T06:09:10.363Z,63.20
2019-02-27T06:13:14.165Z,63.70
2019-02-27T06:17:18.984Z,64.30
2019-02-27T06:21:22.111Z,66.20
2019-02-27T06:25:25.238Z,66.50
2019-02-27T06:29:28.354Z,66.80
2019-02-27T06:33:31.496Z,66.80
2019-02-27T06:37:34.507Z,65.10
2019-02-27T06:41:37.509Z,63.90
2019-02-27T06:45:40.508Z,63.60
2019-02-27T06:49:43.537Z,64.00
2019-02-27T06:53:46.541Z,63.30
2019-02-27T06:57:49.535Z,63.60
2019-02-27T07:01:52.599Z,63.50
2019-02-27T07:05:55.596Z,63.80
2019-02-27T07:09:58.691Z,64.40
2019-02-27T07:14:01.689Z,65.00
2019-02-27T07:18:06.123Z,65.10
2019-02-27T07:22:12.520Z,64.70
2019-02-27T07:26:15.811Z,63.60
2019-02-27T07:30:19.835Z,62.60
2019-02-27T07:34:22.841Z,59.60
2019-02-27T07:38:25.856Z,57.30
2019-02-27T07:42:31.942Z,54.90
2019-02-27T07:46:35.486Z,54.90
2019-02-27T07:50:38.710Z,53.80
2019-02-27T07:54:41.809Z,53.30
2019-02-27T07:58:44.810Z,50.80
2019-02-27T08:02:48.139Z,49.00
2019-02-27T08:06:51.139Z,47.30
2019-02-27T08:10:54.139Z,46.00
2019-02-27T08:14:57.138Z,45.30
2019-02-27T08:19:02.033Z,42.70
2019-02-27T08:23:06.800Z,40.20
2019-02-27T08:27:10.381Z,38.20
2019-02-27T08:31:13.649Z,37.50
2019-02-27T08:35:16.833Z,36.90
2019-02-27T08:39:19.859Z,38.00
2019-02-27T08:43:22.867Z,38.70
2019-02-27T08:47:25.870Z,38.60
2019-02-27T08:51:28.873Z,37.40
2019-02-27T08:55:31.895Z,35.50
2019-02-27T08:59:37.026Z,34.20
2019-02-27T09:03:39.892Z,32.60
2019-02-27T09:07:43.199Z,31.00
2019-02-27T09:11:46.309Z,29.50
2019-02-27T09:15:49.319Z,30.10
2019-02-27T09:19:54.037Z,27.80
2019-02-27T09:23:57.060Z,30.00
2019-02-27T09:28:00.075Z,32.70
2019-02-27T09:32:03.088Z,32.60
2019-02-27T09:36:08.012Z,34.40
2019-02-27T09:40:13.822Z,34.90
2019-02-27T09:44:16.854Z,32.80
2019-02-27T09:48:19.857Z,32.60
2019-02-27T09:52:23.735Z,29.80
2019-02-27T09:56:29.123Z,29.20
2019-02-27T10:00:37.561Z,28.20
2019-02-27T10:04:40.551Z,26.70
2019-02-27T10:08:43.753Z,25.70
2019-02-27T10:12:46.751Z,25.10
2019-02-27T10:16:49.747Z,23.60
2019-02-27T10:20:53.641Z,22.30
2019-02-27T10:24:56.699Z,20.90
2019-02-27T10:28:59.706Z,20.40
2019-02-27T10:33:03.493Z,21.00
2019-02-27T10:37:06.765Z,21.20
2019-02-27T10:41:10.093Z,23.30
2019-02-27T10:45:13.909Z,23.60
2019-02-27T10:49:21.646Z,24.50
2019-02-27T10:53:21.852Z,24.10
2019-02-27T10:57:24.863Z,24.00
2019-02-27T11:01:27.884Z,25.20
2019-02-27T11:05:36.414Z,24.50
2019-02-27T11:09:41.303Z,24.70
2019-02-27T11:13:44.401Z,24.70
2019-02-27T11:17:47.532Z,24.60
2019-02-27T11:21:51.279Z,24.90
2019-02-27T11:25:56.997Z,24.80
2019-02-27T11:30:01.291Z,24.80
2019-02-27T11:34:05.036Z,25.00
2019-02-27T11:38:08.957Z,25.20
2019-02-27T11:42:11.945Z,25.00
2019-02-27T11:46:14.940Z,26.00
2019-02-27T11:50:18.792Z,25.70
2019-02-27T11:54:21.875Z,25.10
2019-02-27T11:58:24.868Z,25.70
2019-02-27T12:02:29.811Z,25.80
2019-02-27T12:06:32.783Z,25.30
2019-02-27T12:10:36.855Z,25.30
2019-02-27T12:14:39.848Z,25.60
2019-02-27T12:18:42.906Z,26.00
2019-02-27T12:22:46.960Z,25.60
2019-02-27T12:26:49.955Z,25.00
2019-02-27T12:30:52.964Z,24.50
2019-02-27T12:34:55.988Z,23.00
2019-02-27T12:38:59.072Z,22.30
2019-02-27T12:43:02.098Z,22.30
2019-02-27T12:47:05.733Z,21.50
2019-02-27T12:51:16.119Z,21.80
2019-02-27T12:55:20.446Z,20.40
2019-02-27T12:59:23.677Z,20.10
2019-02-27T13:03:28.047Z,19.40
2019-02-27T13:07:31.062Z,21.00
2019-02-27T13:11:34.094Z,19.40
2019-02-27T13:16:34.711Z,19.20
2019-02-27T13:20:37.709Z,17.70
2019-02-27T13:24:41.431Z,17.20
2019-02-27T13:28:46.020Z,18.00
2019-02-27T13:32:49.418Z,16.90
2019-02-27T13:36:52.529Z,17.50
2019-02-27T13:40:55.525Z,16.30
2019-02-27T13:45:01.324Z,16.70
2019-02-27T13:49:04.356Z,17.30
2019-02-27T13:53:08.407Z,17.50
2019-02-27T13:57:11.443Z,17.40
2019-02-27T14:01:14.474Z,16.80
2019-02-27T14:05:17.602Z,16.60
2019-02-27T14:09:20.846Z,16.30
2019-02-27T14:13:25.189Z,16.10
2019-02-27T14:17:28.649Z,17.20
2019-02-27T14:21:35.262Z,16.50
2019-02-27T14:25:38.128Z,16.90
2019-02-27T14:29:41.398Z,17.00
2019-02-27T14:33:46.451Z,16.70
2019-02-27T14:37:50.122Z,15.90
2019-02-27T14:41:54.328Z,15.60
2019-02-27T14:45:57.638Z,23.50
2019-02-27T14:50:00.663Z,16.10
2019-02-27T14:54:03.887Z,15.90
2019-02-27T14:58:09.102Z,15.00
2019-02-27T15:02:12.330Z,14.80
2019-02-27T15:06:15.902Z,15.70
2019-02-27T15:10:21.016Z,15.60
2019-02-27T15:14:25.202Z,15.20
2019-02-27T15:18:28.369Z,16.30
2019-02-27T15:22:31.434Z,17.30
2019-02-27T15:26:35.627Z,18.30
2019-02-27T15:30:38.655Z,18.40
2019-02-27T15:34:42.757Z,18.40
2019-02-27T15:38:46.945Z,19.30
2019-02-27T15:42:50.092Z,18.80
2019-02-27T15:46:53.520Z,19.50
2019-02-27T15:50:58.094Z,19.20
2019-02-27T15:55:04.324Z,19.30
2019-02-27T15:59:08.275Z,19.50
2019-02-27T16:03:12.117Z,19.60
2019-02-27T16:07:15.276Z,19.90
2019-02-27T16:11:18.312Z,19.60
2019-02-27T16:15:22.420Z,20.50
2019-02-27T16:19:25.464Z,21.10
2019-02-27T16:23:28.492Z,21.30
2019-02-27T16:27:35.381Z,21.90
2019-02-27T16:31:40.051Z,21.60
2019-02-27T16:35:43.168Z,22.20
2019-02-27T16:39:46.455Z,22.60
2019-02-27T16:43:49.501Z,22.40
2019-02-27T16:47:53.970Z,22.60
2019-02-27T16:51:57.475Z,23.80
2019-02-27T16:56:02.713Z,24.50
2019-02-27T17:00:09.537Z,26.00
2019-02-27T17:04:12.920Z,27.30
2019-02-27T17:08:16.095Z,27.30
2019-02-27T17:12:19.211Z,27.80
2019-02-27T17:16:22.246Z,27.70
2019-02-27T17:20:26.131Z,28.60
2019-02-27T17:24:29.211Z,28.50
2019-02-27T17:28:33.309Z,29.10
2019-02-27T17:32:37.354Z,29.90
2019-02-27T17:36:40.458Z,30.10
2019-02-27T17:40:45.498Z,30.10
2019-02-27T17:44:48.599Z,29.90
2019-02-27T17:48:51.742Z,31.10
2019-02-27T17:52:54.838Z,31.10
2019-02-27T17:56:57.922Z,32.50
2019-02-27T18:01:03.092Z,32.30
2019-02-27T18:05:09.206Z,31.90
2019-02-27T18:09:12.821Z,31.70
2019-02-27T18:13:15.918Z,32.40
2019-02-27T18:17:19.038Z,34.10
2019-02-27T18:21:22.236Z,33.60
2019-02-27T18:25:25.305Z,34.60
2019-02-27T18:29:30.109Z,36.40
2019-02-27T18:33:33.112Z,36.10
2019-02-27T18:37:36.106Z,35.40
2019-02-27T18:41:39.759Z,35.40
2019-02-27T18:45:42.990Z,35.90
2019-02-27T18:49:52.181Z,36.00
2019-02-27T18:53:54.297Z,36.00
2019-02-27T18:57:57.328Z,36.70
2019-02-27T19:02:00.361Z,36.40
2019-02-27T19:06:03.383Z,35.80
2019-02-27T19:10:09.030Z,35.90
2019-02-27T19:14:12.139Z,36.80
2019-02-27T19:18:15.167Z,37.30
2019-02-27T19:22:18.175Z,37.80
2019-02-27T19:26:21.162Z,38.50
2019-02-27T19:30:28.343Z,38.50
2019-02-27T19:34:32.461Z,38.20
2019-02-27T19:38:36.557Z,38.80
2019-02-27T19:42:48.856Z,39.00
2019-02-27T19:46:52.562Z,39.30
2019-02-27T19:50:55.677Z,40.20
2019-02-27T19:54:58.682Z,40.50
2019-02-27T19:59:01.707Z,40.00
2019-02-27T20:03:04.863Z,40.30
2019-02-27T20:07:07.983Z,41.20
2019-02-27T20:11:11.282Z,41.20
2019-02-27T20:15:16.678Z,41.80
2019-02-27T20:19:22.820Z,41.90
2019-02-27T20:23:25.741Z,42.20
2019-02-27T20:27:30.705Z,42.40
2019-02-27T20:31:35.572Z,42.60
2019-02-27T20:35:38.786Z,42.50
2019-02-27T20:39:41.984Z,42.90
2019-02-27T20:43:45.159Z,42.90
2019-02-27T20:47:49.541Z,43.20
2019-02-27T20:51:53.660Z,43.30
2019-02-27T20:55:56.858Z,43.60
2019-02-27T21:00:02.136Z,45.00
2019-02-27T21:04:05.800Z,44.80
2019-02-27T21:08:08.795Z,45.10
2019-02-27T21:12:11.865Z,45.60
2019-02-27T21:16:14.847Z,45.10
2019-02-27T21:20:18.050Z,45.30
2019-02-27T21:24:22.356Z,45.50
2019-02-27T21:28:26.362Z,46.00
2019-02-27T21:32:33.190Z,46.00
2019-02-27T21:36:37.359Z,46.40
2019-02-27T21:40:40.648Z,46.40
2019-02-27T21:44:43.648Z,47.40
2019-02-27T21:48:46.757Z,47.00
2019-02-27T21:52:54.281Z,47.80
2019-02-27T21:56:58.948Z,47.00
2019-02-27T22:01:02.238Z,46.80
2019-02-27T22:05:08.322Z,47.30
2019-02-27T22:09:13.664Z,47.40
2019-02-27T22:13:28.616Z,47.60
2019-02-27T22:17:22.303Z,47.50
2019-02-27T22:21:25.306Z,47.60
2019-02-27T22:25:31.074Z,47.70
2019-02-27T22:29:35.286Z,48.00
2019-02-27T22:33:38.797Z,48.10
2019-02-27T22:37:41.838Z,48.20
2019-02-27T22:41:44.837Z,48.20
2019-02-27T22:45:49.923Z,47.90
2019-02-27T22:49:52.905Z,48.90
2019-02-27T22:53:55.944Z,49.30
2019-02-27T22:57:58.981Z,49.60
2019-02-27T23:02:02.118Z,50.20
2019-02-27T23:06:05.936Z,49.90
2019-02-27T23:10:09.430Z,49.90
2019-02-27T23:14:12.881Z,50.00
2019-02-27T23:18:15.948Z,50.50
2019-02-27T23:22:18.926Z,50.30
2019-02-27T23:26:21.934Z,50.80
2019-02-27T23:30:24.927Z,50.70
2019-02-27T23:34:29.682Z,50.80
2019-02-27T23:38:34.685Z,50.70
2019-02-27T23:42:37.669Z,50.50
2019-02-27T23:46:48.747Z,50.70
2019-02-27T23:50:45.621Z,50.40
2019-02-27T23:54:48.657Z,48.90
2019-02-27T23:58:51.674Z,48.60
